createdAt,value
2019-01-23T00:01:55.123Z,55.13
2019-01-23T00:04:25.507Z,58.73
2019-01-23T00:06:56.640Z,62.77
2019-01-23T00:09:26.588Z,52.57
2019-01-23T00:11:56.684Z,42.23
2019-01-23T00:14:28.727Z,51.23
2019-01-23T00:16:59.457Z,49.60
2019-01-23T00:19:30.681Z,49.27
2019-01-23T00:22:03.169Z,45.10
2019-01-23T00:24:32.929Z,58.97
2019-01-23T00:27:03.145Z,42.90
2019-01-23T00:29:34.926Z,53.37
2019-01-23T00:32:06.639Z,51.20
2019-01-23T00:34:37.793Z,53.50
2019-01-23T00:37:09.038Z,45.50
2019-01-23T00:39:39.227Z,51.97
2019-01-23T00:42:10.016Z,53.10
2019-01-23T00:44:39.793Z,51.70
2019-01-23T00:47:10.758Z,41.43
2019-01-23T00:49:42.452Z,58.70
2019-01-23T00:52:13.782Z,51.50
2019-01-23T00:54:46.607Z,48.97
2019-01-23T00:57:18.453Z,57.27
2019-01-23T00:59:52.236Z,52.70
2019-01-23T01:02:23.342Z,55.13
2019-01-23T01:04:53.522Z,40.67
2019-01-23T01:07:26.341Z,53.30
2019-01-23T01:09:58.740Z,52.60
2019-01-23T01:12:28.511Z,54.60
2019-01-23T01:14:59.630Z,43.13
2019-01-23T01:17:30.870Z,56.27
2019-01-23T01:20:01.063Z,98.77
2019-01-23T01:22:31.377Z,52.50
2019-01-23T01:25:03.278Z,53.70
2019-01-23T01:27:34.368Z,49.20
2019-01-23T01:30:08.580Z,55.23
2019-01-23T01:32:39.401Z,48.43
2019-01-23T01:35:11.180Z,51.93
2019-01-23T01:37:42.222Z,41.33
2019-01-23T01:40:16.250Z,52.60
2019-01-23T01:42:47.477Z,46.47
2019-01-23T01:45:19.159Z,55.80
2019-01-23T01:47:49.049Z,54.40
2019-01-23T01:50:20.349Z,56.67
2019-01-23T01:55:41.206Z,51.77
2019-01-23T01:58:11.517Z,55.87
2019-01-23T02:00:41.921Z,53.87
2019-01-23T02:03:15.554Z,52.27
2019-01-23T02:05:46.519Z,41.17
2019-01-23T02:08:19.435Z,52.93
2019-01-23T02:10:49.706Z,56.43
2019-01-23T02:13:22.237Z,53.37
2019-01-23T02:15:52.506Z,45.27
2019-01-23T02:18:25.086Z,57.53
2019-01-23T02:20:56.333Z,48.10
2019-01-23T02:23:29.157Z,60.10
2019-01-23T02:26:00.084Z,54.77
2019-01-23T02:28:32.536Z,55.77
2019-01-23T02:31:05.829Z,55.30
2019-01-23T02:33:40.421Z,58.57
2019-01-23T02:36:10.689Z,54.80
2019-01-23T02:38:40.870Z,43.90
2019-01-23T02:41:11.082Z,55.10
2019-01-23T02:43:43.397Z,55.13
2019-01-23T02:46:14.842Z,53.30
2019-01-23T02:48:46.985Z,50.43
2019-01-23T02:51:18.225Z,53.80
2019-01-23T02:53:48.453Z,52.47
2019-01-23T02:56:19.516Z,52.43
2019-01-23T02:58:53.249Z,50.57
2019-01-23T03:01:25.612Z,46.53
2019-01-23T03:03:59.373Z,41.00
2019-01-23T03:06:29.549Z,54.77
2019-01-23T03:09:00.711Z,50.57
2019-01-23T03:11:32.021Z,41.37
2019-01-23T03:14:04.094Z,49.80
2019-01-23T03:16:35.234Z,47.30
2019-01-23T03:19:08.076Z,38.10
2019-01-23T03:21:39.403Z,47.30
2019-01-23T03:24:11.309Z,51.13
2019-01-23T03:26:41.057Z,47.03
2019-01-23T03:29:11.250Z,36.77
2019-01-23T03:31:41.531Z,45.93
2019-01-23T03:34:33.072Z,48.53
2019-01-23T03:37:03.377Z,47.53
2019-01-23T03:39:34.614Z,50.23
2019-01-23T03:42:05.879Z,91.87
2019-01-23T03:44:38.037Z,50.13
2019-01-23T03:47:07.513Z,47.00
2019-01-23T03:49:36.988Z,35.47
2019-01-23T03:52:08.389Z,43.43
2019-01-23T03:54:40.923Z,46.27
2019-01-23T03:57:14.341Z,37.13
2019-01-23T03:59:46.837Z,46.77
2019-01-23T04:02:17.869Z,45.50
2019-01-23T04:04:48.997Z,45.33
2019-01-23T04:07:21.121Z,45.67
2019-01-23T04:09:51.365Z,44.63
2019-01-23T04:12:23.361Z,46.97
2019-01-23T04:14:54.487Z,44.63
2019-01-23T04:17:27.057Z,47.07
2019-01-23T04:19:57.271Z,44.20
2019-01-23T04:22:31.567Z,35.83
2019-01-23T04:25:01.734Z,50.70
2019-01-23T04:27:32.971Z,45.67
2019-01-23T04:30:14.138Z,46.33
2019-01-23T04:32:46.764Z,50.87
2019-01-23T04:35:19.310Z,44.77
2019-01-23T04:37:50.674Z,49.23
2019-01-23T04:40:21.855Z,48.63
2019-01-23T04:42:53.779Z,45.33
2019-01-23T04:45:26.889Z,44.60
2019-01-23T04:47:58.079Z,45.53
2019-01-23T04:50:31.498Z,49.13
2019-01-23T04:53:10.379Z,46.20
2019-01-23T04:55:42.102Z,51.63
2019-01-23T04:58:14.437Z,51.77
2019-01-23T05:00:44.714Z,49.90
2019-01-23T05:03:15.857Z,48.77
2019-01-23T05:05:47.525Z,44.63
2019-01-23T05:08:21.289Z,36.93
2019-01-23T05:10:52.407Z,44.40
2019-01-23T05:13:23.440Z,43.97
2019-01-23T05:15:54.885Z,41.53
2019-01-23T05:18:26.631Z,52.57
2019-01-23T05:20:59.462Z,44.77
2019-01-23T05:23:30.705Z,48.10
2019-01-23T05:26:01.803Z,45.57
2019-01-23T05:28:34.857Z,44.43
2019-01-23T05:31:06.892Z,45.40
2019-01-23T05:33:36.588Z,45.97
2019-01-23T05:36:06.889Z,34.27
2019-01-23T05:38:38.146Z,46.83
2019-01-23T05:41:09.387Z,44.60
2019-01-23T05:43:39.877Z,47.57
2019-01-23T05:46:10.094Z,46.47
2019-01-23T05:48:41.637Z,43.17
2019-01-23T05:51:11.418Z,46.63
2019-01-23T05:53:44.301Z,44.93
2019-01-23T05:56:14.113Z,36.03
2019-01-23T05:58:46.358Z,47.63
2019-01-23T06:01:19.322Z,45.77
2019-01-23T06:03:49.316Z,38.40
2019-01-23T06:06:19.428Z,44.23
2019-01-23T06:08:50.601Z,44.30
2019-01-23T06:11:21.778Z,46.53
2019-01-23T06:13:52.896Z,47.23
2019-01-23T06:16:24.446Z,36.13
2019-01-23T06:18:57.760Z,45.57
2019-01-23T06:21:28.069Z,33.47
2019-01-23T06:23:58.040Z,46.20
2019-01-23T06:26:30.249Z,44.17
2019-01-23T06:29:03.080Z,34.17
2019-01-23T06:31:34.289Z,42.27
2019-01-23T06:34:05.143Z,47.87
2019-01-23T06:36:36.077Z,46.60
2019-01-23T06:39:08.990Z,49.70
2019-01-23T06:41:41.131Z,37.40
2019-01-23T06:44:12.831Z,48.43
2019-01-23T06:46:43.929Z,44.57
2019-01-23T06:49:16.331Z,48.17
2019-01-23T06:51:48.849Z,48.07
2019-01-23T06:54:19.649Z,48.50
2019-01-23T06:56:49.741Z,46.80
2019-01-23T06:59:20.894Z,47.33
2019-01-23T07:01:51.289Z,47.97
2019-01-23T07:04:21.448Z,46.30
2019-01-23T07:06:52.637Z,45.10
2019-01-23T07:09:23.369Z,38.40
2019-01-23T07:11:54.597Z,48.07
2019-01-23T07:14:27.085Z,45.47
2019-01-23T07:16:58.207Z,48.83
2019-01-23T07:19:29.430Z,38.47
2019-01-23T07:21:59.609Z,55.20
2019-01-23T07:24:29.733Z,46.03
2019-01-23T07:27:00.895Z,46.23
2019-01-23T07:29:32.136Z,47.10
2019-01-23T07:32:03.349Z,38.43
2019-01-23T07:34:35.728Z,46.37
2019-01-23T07:37:07.217Z,43.87
2019-01-23T07:39:37.505Z,48.13
2019-01-23T07:42:10.350Z,49.33
2019-01-23T07:44:41.465Z,51.20
2019-01-23T07:47:12.669Z,51.60
2019-01-23T07:49:45.068Z,48.60
2019-01-23T07:52:17.176Z,45.47
2019-01-23T07:54:47.453Z,36.40
2019-01-23T07:57:18.569Z,54.50
2019-01-23T07:59:48.786Z,48.43
2019-01-23T08:02:21.407Z,48.40
2019-01-23T08:04:52.157Z,49.97
2019-01-23T08:07:23.798Z,51.47
2019-01-23T08:09:57.845Z,51.20
2019-01-23T08:12:29.091Z,50.43
2019-01-23T08:15:02.128Z,49.70
2019-01-23T08:17:33.321Z,51.43
2019-01-23T08:20:04.398Z,50.57
2019-01-23T08:22:35.035Z,40.57
2019-01-23T08:25:07.508Z,52.47
2019-01-23T08:27:38.610Z,51.80
2019-01-23T08:30:14.442Z,51.60
2019-01-23T08:32:45.908Z,52.47
2019-01-23T08:35:17.976Z,42.17
2019-01-23T08:37:51.432Z,56.50
2019-01-23T08:40:22.988Z,52.77
2019-01-23T08:42:54.501Z,53.03
2019-01-23T08:45:24.703Z,53.80
2019-01-23T08:47:56.800Z,57.87
2019-01-23T08:50:33.622Z,56.73
2019-01-23T08:53:04.884Z,52.70
2019-01-23T08:55:35.958Z,53.57
2019-01-23T08:58:06.369Z,46.23
2019-01-23T09:00:36.645Z,55.50
2019-01-23T09:03:07.354Z,54.27
2019-01-23T09:05:38.598Z,54.20
2019-01-23T09:08:11.594Z,51.67
2019-01-23T09:10:42.747Z,53.77
2019-01-23T09:13:14.817Z,55.33
2019-01-23T09:15:45.957Z,54.50
2019-01-23T09:18:16.274Z,59.67
2019-01-23T09:20:47.430Z,51.07
2019-01-23T09:23:19.169Z,53.03
2019-01-23T09:25:51.671Z,55.93
2019-01-23T09:28:21.575Z,53.63
2019-01-23T09:30:56.613Z,54.17
2019-01-23T09:33:35.773Z,53.70
2019-01-23T09:36:20.555Z,58.37
2019-01-23T09:39:09.854Z,53.67
2019-01-23T09:41:56.801Z,55.73
2019-01-23T09:44:57.776Z,54.63
2019-01-23T09:47:45.858Z,59.63
2019-01-23T09:50:25.753Z,53.63
2019-01-23T09:53:09.065Z,57.17
2019-01-23T09:55:39.293Z,58.47
2019-01-23T09:58:10.354Z,56.33
2019-01-23T10:00:40.351Z,40.93
2019-01-23T10:03:12.029Z,51.43
2019-01-23T10:05:44.766Z,51.07
2019-01-23T10:08:17.701Z,48.93
2019-01-23T10:10:48.754Z,54.80
2019-01-23T10:13:19.954Z,52.13
2019-01-23T10:15:53.312Z,47.50
2019-01-23T10:18:24.565Z,51.57
2019-01-23T10:21:02.998Z,57.70
2019-01-23T10:23:35.323Z,52.00
2019-01-23T10:26:06.505Z,55.80
2019-01-23T10:28:36.722Z,51.27
2019-01-23T10:31:07.002Z,54.30
2019-01-23T10:33:38.242Z,54.10
2019-01-23T10:36:11.402Z,50.60
2019-01-23T10:38:42.637Z,52.97
2019-01-23T10:41:13.670Z,53.07
2019-01-23T10:43:44.915Z,50.00
2019-01-23T10:46:16.013Z,53.70
2019-01-23T10:48:47.097Z,53.67
2019-01-23T10:51:19.270Z,52.23
2019-01-23T10:53:50.379Z,51.07
2019-01-23T10:56:21.606Z,49.37
2019-01-23T10:58:52.779Z,49.37
2019-01-23T11:01:26.078Z,51.83
2019-01-23T11:03:58.919Z,53.80
2019-01-23T11:06:30.127Z,53.40
2019-01-23T11:09:03.909Z,54.87
2019-01-23T11:11:35.542Z,51.87
2019-01-23T11:14:08.897Z,48.93
2019-01-23T11:16:40.898Z,48.23
2019-01-23T11:19:12.010Z,52.23
2019-01-23T11:21:44.399Z,53.50
2019-01-23T11:24:17.214Z,52.20
2019-01-23T11:26:47.482Z,48.50
2019-01-23T11:29:17.937Z,52.80
2019-01-23T11:31:48.182Z,49.43
2019-01-23T11:34:19.383Z,52.33
2019-01-23T11:36:50.437Z,49.13
2019-01-23T11:39:21.271Z,51.70
2019-01-23T11:41:51.480Z,51.77
2019-01-23T11:44:22.607Z,52.93
2019-01-23T11:46:53.750Z,54.03
2019-01-23T11:49:23.953Z,50.27
2019-01-23T11:51:56.538Z,56.20
2019-01-23T11:54:27.787Z,52.67
2019-01-23T11:56:59.025Z,54.00
2019-01-23T11:59:30.481Z,56.23
2019-01-23T12:02:00.781Z,58.40
2019-01-23T12:04:31.946Z,57.27
2019-01-23T12:07:02.217Z,61.57
2019-01-23T12:09:33.565Z,53.73
2019-01-23T12:12:03.761Z,57.83
2019-01-23T12:14:35.530Z,60.00
2019-01-23T12:17:05.825Z,61.77
2019-01-23T12:19:37.062Z,66.07
2019-01-23T12:22:08.139Z,64.10
2019-01-23T12:24:39.159Z,59.90
2019-01-23T12:27:10.310Z,60.03
2019-01-23T12:29:42.083Z,57.67
2019-01-23T12:32:12.322Z,61.13
2019-01-23T12:34:43.785Z,64.20
2019-01-23T12:37:15.227Z,54.30
2019-01-23T12:39:46.365Z,56.97
2019-01-23T12:42:17.555Z,56.53
2019-01-23T12:44:47.711Z,61.17
2019-01-23T12:47:17.901Z,55.17
2019-01-23T12:49:48.958Z,57.87
2019-01-23T12:52:21.002Z,59.33
2019-01-23T12:54:52.385Z,57.43
2019-01-23T12:57:23.625Z,56.13
2019-01-23T12:59:54.760Z,57.03
2019-01-23T13:02:24.934Z,59.33
2019-01-23T13:04:56.370Z,61.80
2019-01-23T13:07:27.837Z,61.27
2019-01-23T13:09:58.058Z,58.10
2019-01-23T13:12:29.294Z,58.07
2019-01-23T13:15:02.105Z,53.60
2019-01-23T13:17:32.375Z,52.20
2019-01-23T13:20:03.539Z,54.33
2019-01-23T13:22:37.249Z,56.43
2019-01-23T13:25:10.592Z,54.30
2019-01-23T13:27:42.591Z,54.60
2019-01-23T13:30:15.790Z,55.57
2019-01-23T13:32:48.820Z,58.27
2019-01-23T13:35:24.200Z,53.43
2019-01-23T13:37:54.629Z,51.80
2019-01-23T13:40:29.637Z,51.97
2019-01-23T13:42:59.942Z,54.57
2019-01-23T13:45:31.061Z,51.47
2019-01-23T13:48:02.547Z,51.73
2019-01-23T13:50:35.469Z,48.40
2019-01-23T13:53:06.777Z,42.33
2019-01-23T13:55:37.913Z,45.90
2019-01-23T13:58:09.042Z,40.87
2019-01-23T14:00:41.371Z,41.77
2019-01-23T14:03:13.199Z,44.30
2019-01-23T14:05:43.442Z,42.13
2019-01-23T14:08:15.924Z,41.17
2019-01-23T14:10:47.166Z,41.60
2019-01-23T14:13:18.685Z,40.40
2019-01-23T14:15:51.012Z,40.83
2019-01-23T14:18:25.382Z,42.17
2019-01-23T14:20:55.772Z,44.17
2019-01-23T14:23:28.745Z,34.47
2019-01-23T14:25:59.924Z,39.87
2019-01-23T14:28:32.502Z,36.07
2019-01-23T14:31:03.985Z,35.00
2019-01-23T14:33:37.733Z,39.40
2019-01-23T14:36:10.135Z,41.53
2019-01-23T14:38:41.231Z,40.87
2019-01-23T14:41:12.361Z,42.50
2019-01-23T14:43:44.792Z,39.20
2019-01-23T14:46:16.869Z,40.37
2019-01-23T14:48:49.365Z,53.30
2019-01-23T14:51:23.211Z,42.03
2019-01-23T14:53:54.417Z,42.73
2019-01-23T14:56:27.477Z,43.23
2019-01-23T14:58:59.216Z,44.80
2019-01-23T15:01:30.777Z,46.50
2019-01-23T15:04:01.090Z,48.30
2019-01-23T15:06:33.137Z,45.43
2019-01-23T15:09:05.734Z,47.70
2019-01-23T15:11:38.154Z,46.53
2019-01-23T15:14:09.577Z,46.27
2019-01-23T15:16:39.786Z,47.67
2019-01-23T15:19:10.854Z,49.20
2019-01-23T15:21:42.042Z,34.50
2019-01-23T15:24:14.018Z,47.20
2019-01-23T15:26:44.211Z,50.47
2019-01-23T15:29:14.373Z,52.87
2019-01-23T15:31:44.822Z,59.17
2019-01-23T15:34:16.085Z,58.30
2019-01-23T15:36:47.628Z,54.43
2019-01-23T15:39:17.762Z,45.37
2019-01-23T15:41:51.975Z,54.57
2019-01-23T15:44:24.046Z,58.03
2019-01-23T15:46:56.445Z,57.87
2019-01-23T15:49:27.718Z,56.10
2019-01-23T15:51:58.424Z,53.33
2019-01-23T15:54:29.764Z,53.93
2019-01-23T15:57:00.886Z,59.23
2019-01-23T15:59:32.026Z,55.80
2019-01-23T16:02:03.751Z,56.40
2019-01-23T16:04:35.858Z,63.03
2019-01-23T16:07:05.658Z,56.60
2019-01-23T16:09:38.480Z,42.17
2019-01-23T16:12:10.673Z,54.23
2019-01-23T16:14:41.800Z,52.33
2019-01-23T16:17:14.372Z,54.80
2019-01-23T16:19:46.706Z,51.60
2019-01-23T16:22:21.270Z,45.33
2019-01-23T16:24:53.942Z,52.93
2019-01-23T16:27:25.485Z,61.20
2019-01-23T16:29:56.626Z,52.43
2019-01-23T16:32:31.474Z,49.90
2019-01-23T16:35:00.621Z,50.60
2019-01-23T16:37:30.787Z,55.57
2019-01-23T16:40:00.982Z,42.03
2019-01-23T16:42:32.311Z,57.73
2019-01-23T16:45:02.211Z,55.40
2019-01-23T16:47:36.005Z,56.73
2019-01-23T16:50:11.258Z,56.83
2019-01-23T16:52:41.154Z,59.40
2019-01-23T16:55:13.173Z,62.17
2019-01-23T16:57:45.030Z,52.03
2019-01-23T17:00:21.498Z,48.53
2019-01-23T17:02:53.228Z,58.17
2019-01-23T17:05:29.829Z,62.23
2019-01-23T17:08:03.882Z,57.37
2019-01-23T17:10:35.079Z,56.43
2019-01-23T17:13:09.590Z,44.00
2019-01-23T17:15:41.742Z,59.63
2019-01-23T17:18:14.135Z,54.57
2019-01-23T17:20:45.731Z,63.80
2019-01-23T17:23:15.897Z,45.47
2019-01-23T17:25:47.016Z,61.23
2019-01-23T17:28:18.601Z,55.03
2019-01-23T17:30:51.000Z,60.03
2019-01-23T17:33:21.746Z,64.23
2019-01-23T17:35:51.698Z,60.23
2019-01-23T17:38:23.679Z,61.87
2019-01-23T17:40:53.952Z,55.40
2019-01-23T17:43:25.933Z,58.40
2019-01-23T17:45:58.793Z,55.67
2019-01-23T17:48:32.838Z,50.10
2019-01-23T17:51:05.864Z,63.27
2019-01-23T17:53:36.054Z,67.20
2019-01-23T17:56:08.225Z,52.67
2019-01-23T17:58:39.051Z,61.43
2019-01-23T18:01:12.187Z,66.47
2019-01-23T18:03:45.038Z,71.53
2019-01-23T18:06:16.390Z,65.50
2019-01-23T18:08:47.513Z,69.80
2019-01-23T18:11:18.649Z,66.70
2019-01-23T18:13:50.556Z,66.03
2019-01-23T18:16:20.733Z,51.37
2019-01-23T18:18:53.610Z,71.70
2019-01-23T18:21:23.956Z,66.30
2019-01-23T18:23:55.067Z,62.23
2019-01-23T18:26:27.196Z,52.00
2019-01-23T18:28:57.249Z,68.63
2019-01-23T18:31:30.330Z,62.87
2019-01-23T18:34:06.510Z,65.23
2019-01-23T18:36:42.775Z,68.70
2019-01-23T18:39:24.960Z,66.47
2019-01-23T18:42:03.958Z,65.60
2019-01-23T18:44:46.058Z,63.00
2019-01-23T18:47:23.187Z,52.10
2019-01-23T18:49:59.195Z,64.63
2019-01-23T18:52:30.019Z,62.60
2019-01-23T18:55:02.217Z,66.07
2019-01-23T18:57:33.685Z,67.77
2019-01-23T19:00:05.514Z,67.00
2019-01-23T19:02:36.680Z,50.63
2019-01-23T19:05:10.889Z,68.37
2019-01-23T19:07:42.080Z,67.27
2019-01-23T19:10:18.925Z,59.77
2019-01-23T19:12:50.216Z,66.17
2019-01-23T19:15:23.113Z,65.20
2019-01-23T19:17:55.117Z,65.43
2019-01-23T19:20:26.251Z,62.33
2019-01-23T19:22:58.276Z,50.63
2019-01-23T19:25:32.961Z,63.97
2019-01-23T19:28:04.199Z,62.07
2019-01-23T19:30:36.173Z,65.77
2019-01-23T19:33:13.502Z,63.87
2019-01-23T19:35:42.246Z,67.37
2019-01-23T19:38:13.450Z,64.47
2019-01-23T19:40:44.585Z,50.90
2019-01-23T19:43:17.013Z,65.17
2019-01-23T19:45:48.145Z,64.10
2019-01-23T19:48:19.375Z,51.10
2019-01-23T19:50:50.693Z,60.90
2019-01-23T19:53:21.601Z,68.10
2019-01-23T19:55:52.465Z,63.70
2019-01-23T19:58:24.715Z,63.53
2019-01-23T20:00:55.099Z,60.87
2019-01-23T20:03:25.911Z,57.67
2019-01-23T20:05:56.071Z,64.07
2019-01-23T20:08:27.121Z,64.80
2019-01-23T20:10:57.861Z,63.70
2019-01-23T20:13:29.598Z,69.53
2019-01-23T20:15:59.489Z,65.60
2019-01-23T20:18:29.276Z,62.13
2019-01-23T20:21:01.621Z,67.30
2019-01-23T20:23:34.583Z,69.43
2019-01-23T20:26:04.750Z,63.43
2019-01-23T20:28:35.690Z,67.60
2019-01-23T20:31:06.501Z,58.27
2019-01-23T20:33:36.574Z,65.93
2019-01-23T20:36:09.653Z,53.20
2019-01-23T20:38:40.865Z,60.33
2019-01-23T20:41:14.892Z,68.80
2019-01-23T20:43:47.738Z,63.70
2019-01-23T20:46:20.631Z,64.07
2019-01-23T20:51:41.435Z,63.03
2019-01-23T20:54:12.689Z,65.37
2019-01-23T20:56:47.275Z,53.67
2019-01-23T20:59:18.041Z,66.33
2019-01-23T21:01:49.059Z,67.00
2019-01-23T21:04:20.332Z,50.10
2019-01-23T21:06:51.581Z,62.80
2019-01-23T21:09:21.862Z,62.90
2019-01-23T21:11:54.058Z,63.00
2019-01-23T21:14:23.810Z,52.00
2019-01-23T21:16:54.007Z,64.00
2019-01-23T21:19:23.694Z,66.00
2019-01-23T21:21:56.526Z,50.23
2019-01-23T21:24:26.789Z,63.57
2019-01-23T21:26:58.078Z,66.50
2019-01-23T21:29:29.090Z,58.13
2019-01-23T21:32:02.829Z,58.13
2019-01-23T21:34:34.402Z,63.27
2019-01-23T21:37:07.085Z,52.50
2019-01-23T21:39:39.145Z,67.33
2019-01-23T21:42:13.125Z,67.13
2019-01-23T21:44:46.058Z,61.60
2019-01-23T21:47:16.310Z,48.20
2019-01-23T21:49:49.765Z,61.00
2019-01-23T21:52:20.940Z,52.97
2019-01-23T21:54:52.122Z,66.53
2019-01-23T21:57:25.925Z,60.90
2019-01-23T21:59:57.214Z,59.07
2019-01-23T22:02:28.013Z,61.80
2019-01-23T22:04:57.845Z,60.57
2019-01-23T22:07:28.952Z,62.37
2019-01-23T22:10:00.176Z,52.70
2019-01-23T22:12:32.805Z,59.87
2019-01-23T22:15:04.310Z,59.97
2019-01-23T22:17:37.678Z,66.63
2019-01-23T22:20:13.244Z,59.27
2019-01-23T22:22:44.444Z,65.10
2019-01-23T22:25:16.329Z,62.67
2019-01-23T22:27:48.750Z,63.33
2019-01-23T22:30:23.069Z,65.50
2019-01-23T22:32:54.113Z,51.97
2019-01-23T22:35:28.313Z,65.90
2019-01-23T22:37:58.580Z,65.53
2019-01-23T22:40:28.916Z,63.77
2019-01-23T22:42:58.354Z,65.30
2019-01-23T22:45:29.429Z,67.90
2019-01-23T22:47:59.191Z,61.57
2019-01-23T22:50:30.324Z,65.57
2019-01-23T22:53:02.924Z,63.23
2019-01-23T22:55:33.794Z,62.00
2019-01-23T22:58:03.913Z,64.97
2019-01-23T23:00:41.251Z,50.27
2019-01-23T23:03:14.224Z,64.83
2019-01-23T23:05:45.902Z,66.60
2019-01-23T23:08:17.059Z,65.33
2019-01-23T23:10:47.270Z,66.83
2019-01-23T23:13:17.980Z,69.47
2019-01-23T23:15:49.173Z,66.03
2019-01-23T23:18:19.370Z,53.00
2019-01-23T23:20:49.581Z,67.67
2019-01-23T23:23:22.963Z,67.07
2019-01-23T23:25:53.113Z,68.30
2019-01-23T23:28:26.541Z,62.73
2019-01-23T23:30:56.957Z,67.10
2019-01-23T23:33:27.249Z,63.27
2019-01-23T23:35:57.461Z,66.17
2019-01-23T23:38:30.661Z,68.00
2019-01-23T23:41:02.949Z,52.20
2019-01-23T23:43:35.503Z,67.37
2019-01-23T23:46:06.579Z,53.00
2019-01-23T23:48:39.016Z,63.50
2019-01-23T23:51:10.142Z,62.83
2019-01-23T23:53:39.901Z,61.80
2019-01-23T23:56:11.125Z,63.10
2019-01-23T23:58:42.068Z,62.03
